sensor_id;sensor_type;location;lat;lon;timestamp;pressure;altitude;pressure_sealevel;temperature;humidity
46506;BME280;32220;49.808;9.968;2023-05-03T00:02:13;99813.44;;;9.23;70.04
46506;BME280;32220;49.808;9.968;2023-05-03T00:04:41;99818.78;;;9.21;71.05
46506;BME280;32220;49.808;9.968;2023-05-03T00:07:13;99812.78;;;9.18;71.83
46506;BME280;32220;49.808;9.968;2023-05-03T00:09:40;99814.69;;;9.14;71.44
46506;BME280;32220;49.808;9.968;2023-05-03T00:12:08;99826.97;;;9.15;71.07
46506;BME280;32220;49.808;9.968;2023-05-03T00:14:36;99825.34;;;9.13;70.50
46506;BME280;32220;49.808;9.968;2023-05-03T00:17:03;99793.63;;;8.91;71.13
46506;BME280;32220;49.808;9.968;2023-05-03T00:19:31;99791.06;;;8.89;71.04
46506;BME280;32220;49.808;9.968;2023-05-03T00:22:00;99826.53;;;9.04;71.36
46506;BME280;32220;49.808;9.968;2023-05-03T00:24:30;99824.91;;;9.02;71.29
46506;BME280;32220;49.808;9.968;2023-05-03T00:26:58;99819.75;;;8.98;71.71
46506;BME280;32220;49.808;9.968;2023-05-03T00:29:26;99786.41;;;8.74;71.49
46506;BME280;32220;49.808;9.968;2023-05-03T00:31:53;99824.34;;;8.93;71.47
46506;BME280;32220;49.808;9.968;2023-05-03T00:34:21;99824.34;;;8.93;71.22
46506;BME280;32220;49.808;9.968;2023-05-03T00:36:48;99809.69;;;8.86;70.85
46506;BME280;32220;49.808;9.968;2023-05-03T00:39:16;99801.97;;;8.80;71.06
46506;BME280;32220;49.808;9.968;2023-05-03T00:41:46;99813.91;;;8.90;71.42
46506;BME280;32220;49.808;9.968;2023-05-03T00:44:13;99814.63;;;8.94;70.85
46506;BME280;32220;49.808;9.968;2023-05-03T00:46:41;99808.50;;;8.93;71.32
46506;BME280;32220;49.808;9.968;2023-05-03T00:49:09;99787.84;;;8.81;71.30
46506;BME280;32220;49.808;9.968;2023-05-03T00:51:37;99802.41;;;8.91;71.44
46506;BME280;32220;49.808;9.968;2023-05-03T00:54:05;99807.78;;;8.90;70.99
46506;BME280;32220;49.808;9.968;2023-05-03T00:56:33;99810.47;;;8.88;71.30
46506;BME280;32220;49.808;9.968;2023-05-03T00:59:02;99805.19;;;8.88;70.99
46506;BME280;32220;49.808;9.968;2023-05-03T01:01:31;99795.66;;;8.84;71.67
46506;BME280;32220;49.808;9.968;2023-05-03T01:03:59;99793.03;;;8.84;72.08
46506;BME280;32220;49.808;9.968;2023-05-03T01:06:32;99797.44;;;8.84;71.67
46506;BME280;32220;49.808;9.968;2023-05-03T01:09:09;99797.78;;;8.76;71.33
46506;BME280;32220;49.808;9.968;2023-05-03T01:11:46;99797.63;;;8.79;71.15
46506;BME280;32220;49.808;9.968;2023-05-03T01:14:23;99810.59;;;8.85;71.02
46506;BME280;32220;49.808;9.968;2023-05-03T01:16:59;99802.56;;;8.88;70.76
46506;BME280;32220;49.808;9.968;2023-05-03T01:19:31;99805.19;;;8.88;70.79
46506;BME280;32220;49.808;9.968;2023-05-03T01:22:09;99741.44;;;8.54;70.61
46506;BME280;32220;49.808;9.968;2023-05-03T01:24:39;99794.75;;;8.85;70.20
46506;BME280;32220;49.808;9.968;2023-05-03T01:27:09;99807.56;;;8.94;70.33
46506;BME280;32220;49.808;9.968;2023-05-03T01:29:37;99808.00;;;9.06;69.60
46506;BME280;32220;49.808;9.968;2023-05-03T01:32:08;99811.03;;;9.17;69.41
46506;BME280;32220;49.808;9.968;2023-05-03T01:34:45;99811.66;;;9.23;69.01
46506;BME280;32220;49.808;9.968;2023-05-03T01:37:13;99806.97;;;9.30;68.58
46506;BME280;32220;49.808;9.968;2023-05-03T01:39:47;99798.25;;;9.28;68.55
46506;BME280;32220;49.808;9.968;2023-05-03T01:42:16;99816.09;;;9.43;67.92
46506;BME280;32220;49.808;9.968;2023-05-03T01:44:47;99822.88;;;9.50;67.62
46506;BME280;32220;49.808;9.968;2023-05-03T01:47:16;99831.66;;;9.51;67.19
46506;BME280;32220;49.808;9.968;2023-05-03T01:49:43;99828.81;;;9.55;67.33
46506;BME280;32220;49.808;9.968;2023-05-03T01:52:11;99806.09;;;9.51;66.85
46506;BME280;32220;49.808;9.968;2023-05-03T01:54:39;99814.53;;;9.59;66.87
46506;BME280;32220;49.808;9.968;2023-05-03T01:57:07;99806.41;;;9.64;66.74
46506;BME280;32220;49.808;9.968;2023-05-03T01:59:36;99791.78;;;9.55;66.50
46506;BME280;32220;49.808;9.968;2023-05-03T02:02:04;99804.34;;;9.70;66.24
46506;BME280;32220;49.808;9.968;2023-05-03T02:04:32;99821.00;;;9.72;66.14
46506;BME280;32220;49.808;9.968;2023-05-03T02:07:00;99814.72;;;9.75;65.91
46506;BME280;32220;49.808;9.968;2023-05-03T02:09:28;99794.69;;;9.69;65.62
46506;BME280;32220;49.808;9.968;2023-05-03T02:11:56;99802.50;;;9.72;65.55
46506;BME280;32220;49.808;9.968;2023-05-03T02:14:23;99819.88;;;9.78;65.33
46506;BME280;32220;49.808;9.968;2023-05-03T02:16:53;99817.16;;;9.80;65.66
46506;BME280;32220;49.808;9.968;2023-05-03T02:19:21;99822.44;;;9.80;65.27
46506;BME280;32220;49.808;9.968;2023-05-03T02:21:49;99809.50;;;9.73;65.55
46506;BME280;32220;49.808;9.968;2023-05-03T02:24:17;99818.31;;;9.74;65.30
46506;BME280;32220;49.808;9.968;2023-05-03T02:26:45;99819.28;;;9.71;65.02
46506;BME280;32220;49.808;9.968;2023-05-03T02:29:12;99820.16;;;9.72;65.02
46506;BME280;32220;49.808;9.968;2023-05-03T02:31:40;99816.78;;;9.68;65.26
46506;BME280;32220;49.808;9.968;2023-05-03T02:34:09;99827.91;;;9.77;65.18
46506;BME280;32220;49.808;9.968;2023-05-03T02:36:38;99829.59;;;9.78;64.94
46506;BME280;32220;49.808;9.968;2023-05-03T02:39:05;99824.47;;;9.75;64.72
46506;BME280;32220;49.808;9.968;2023-05-03T02:41:33;99831.06;;;9.85;64.83
46506;BME280;32220;49.808;9.968;2023-05-03T02:44:01;99827.34;;;9.89;64.75
46506;BME280;32220;49.808;9.968;2023-05-03T02:46:29;99825.63;;;9.88;64.63
46506;BME280;32220;49.808;9.968;2023-05-03T02:48:57;99832.66;;;9.89;64.46
46506;BME280;32220;49.808;9.968;2023-05-03T02:51:27;99828.91;;;9.93;64.49
46506;BME280;32220;49.808;9.968;2023-05-03T02:53:54;99834.09;;;9.96;64.35
46506;BME280;32220;49.808;9.968;2023-05-03T02:56:22;99813.34;;;9.87;63.98
46506;BME280;32220;49.808;9.968;2023-05-03T02:58:51;99833.09;;;9.98;64.01
46506;BME280;32220;49.808;9.968;2023-05-03T03:01:20;99839.56;;;9.91;63.16
46506;BME280;32220;49.808;9.968;2023-05-03T03:03:48;99830.78;;;9.91;63.37
46506;BME280;32220;49.808;9.968;2023-05-03T03:06:16;99820.59;;;9.82;63.07
46506;BME280;32220;49.808;9.968;2023-05-03T03:08:46;99835.94;;;9.94;62.88
46506;BME280;32220;49.808;9.968;2023-05-03T03:11:14;99818.03;;;9.80;63.05
46506;BME280;32220;49.808;9.968;2023-05-03T03:13:41;99825.47;;;9.91;62.78
46506;BME280;32220;49.808;9.968;2023-05-03T03:16:09;99831.69;;;9.90;62.48
46506;BME280;32220;49.808;9.968;2023-05-03T03:18:37;99838.06;;;9.86;61.80
46506;BME280;32220;49.808;9.968;2023-05-03T03:21:04;99838.19;;;9.83;62.28
46506;BME280;32220;49.808;9.968;2023-05-03T03:23:34;99851.50;;;9.81;61.41
46506;BME280;32220;49.808;9.968;2023-05-03T03:26:04;99853.41;;;9.78;61.51
46506;BME280;32220;49.808;9.968;2023-05-03T03:28:32;99854.47;;;9.73;61.33
46506;BME280;32220;49.808;9.968;2023-05-03T03:31:03;99839.25;;;9.58;61.18
46506;BME280;32220;49.808;9.968;2023-05-03T03:33:31;99848.56;;;9.67;61.89
46506;BME280;32220;49.808;9.968;2023-05-03T03:36:06;99849.44;;;9.67;61.30
46506;BME280;32220;49.808;9.968;2023-05-03T03:38:38;99841.91;;;9.58;61.36
46506;BME280;32220;49.808;9.968;2023-05-03T03:41:11;99849.72;;;9.61;61.43
46506;BME280;32220;49.808;9.968;2023-05-03T03:43:39;99857.47;;;9.44;60.85
46506;BME280;32220;49.808;9.968;2023-05-03T03:46:12;99849.03;;;9.36;61.40
46506;BME280;32220;49.808;9.968;2023-05-03T03:48:41;99846.44;;;9.34;61.18
46506;BME280;32220;49.808;9.968;2023-05-03T03:51:09;99834.06;;;9.15;61.58
46506;BME280;32220;49.808;9.968;2023-05-03T03:53:43;99852.19;;;9.24;61.23
46506;BME280;32220;49.808;9.968;2023-05-03T03:56:13;99852.28;;;9.21;61.93
46506;BME280;32220;49.808;9.968;2023-05-03T03:58:41;99856.03;;;9.15;61.62
46506;BME280;32220;49.808;9.968;2023-05-03T04:01:11;99859.00;;;9.08;61.39
46506;BME280;32220;49.808;9.968;2023-05-03T04:03:39;99853.97;;;9.02;61.78
46506;BME280;32220;49.808;9.968;2023-05-03T04:06:07;99862.31;;;8.91;61.85
46506;BME280;32220;49.808;9.968;2023-05-03T04:08:35;99841.97;;;8.71;62.00
46506;BME280;32220;49.808;9.968;2023-05-03T04:11:05;99860.47;;;8.71;62.24
46506;BME280;32220;49.808;9.968;2023-05-03T04:13:38;99859.72;;;8.68;61.99
46506;BME280;32220;49.808;9.968;2023-05-03T04:16:07;99853.13;;;8.56;62.39
46506;BME280;32220;49.808;9.968;2023-05-03T04:18:35;99866.47;;;8.53;62.63
46506;BME280;32220;49.808;9.968;2023-05-03T04:21:04;99867.75;;;8.41;62.63
46506;BME280;32220;49.808;9.968;2023-05-03T04:23:32;99855.78;;;8.33;62.68
46506;BME280;32220;49.808;9.968;2023-05-03T04:26:00;99867.13;;;8.35;62.87
46506;BME280;32220;49.808;9.968;2023-05-03T04:28:29;99871.50;;;8.36;63.13
46506;BME280;32220;49.808;9.968;2023-05-03T04:30:58;99874.25;;;8.33;62.84
46506;BME280;32220;49.808;9.968;2023-05-03T04:33:27;99886.59;;;8.30;63.34
46506;BME280;32220;49.808;9.968;2023-05-03T04:36:00;99887.50;;;8.29;63.02
46506;BME280;32220;49.808;9.968;2023-05-03T04:38:30;99888.44;;;8.28;62.68
46506;BME280;32220;49.808;9.968;2023-05-03T04:41:01;99865.09;;;8.18;62.75
46506;BME280;32220;49.808;9.968;2023-05-03T04:43:29;99893.66;;;8.30;62.98
46506;BME280;32220;49.808;9.968;2023-05-03T04:46:00;99893.63;;;8.32;62.82
46506;BME280;32220;49.808;9.968;2023-05-03T04:48:28;99890.94;;;8.33;62.80
46506;BME280;32220;49.808;9.968;2023-05-03T04:50:57;99888.25;;;8.35;62.59
46506;BME280;32220;49.808;9.968;2023-05-03T04:53:25;99889.06;;;8.37;62.84
46506;BME280;32220;49.808;9.968;2023-05-03T04:56:05;99892.47;;;8.40;62.61
46506;BME280;32220;49.808;9.968;2023-05-03T04:58:36;99897.38;;;8.49;62.37
46506;BME280;32220;49.808;9.968;2023-05-03T05:01:07;99905.00;;;8.57;62.33
46506;BME280;32220;49.808;9.968;2023-05-03T05:03:35;99897.09;;;8.57;61.80
46506;BME280;32220;49.808;9.968;2023-05-03T05:06:08;99887.50;;;8.54;62.18
46506;BME280;32220;49.808;9.968;2023-05-03T05:08:39;99903.56;;;8.72;61.97
46506;BME280;32220;49.808;9.968;2023-05-03T05:11:12;99909.47;;;8.78;61.75
46506;BME280;32220;49.808;9.968;2023-05-03T05:13:40;99914.59;;;8.83;61.21
46506;BME280;32220;49.808;9.968;2023-05-03T05:16:09;99922.16;;;8.92;61.56
46506;BME280;32220;49.808;9.968;2023-05-03T05:18:42;99920.03;;;9.02;61.39
46506;BME280;32220;49.808;9.968;2023-05-03T05:21:10;99916.91;;;9.14;60.85
46506;BME280;32220;49.808;9.968;2023-05-03T05:23:40;99919.97;;;9.25;60.59
46506;BME280;32220;49.808;9.968;2023-05-03T05:26:07;99928.41;;;9.34;60.08
46506;BME280;32220;49.808;9.968;2023-05-03T05:28:36;99930.47;;;9.48;59.91
46506;BME280;32220;49.808;9.968;2023-05-03T05:31:04;99932.50;;;9.63;59.71
46506;BME280;32220;49.808;9.968;2023-05-03T05:33:34;99938.19;;;9.75;59.60
46506;BME280;32220;49.808;9.968;2023-05-03T05:36:04;99947.19;;;9.91;58.53
46506;BME280;32220;49.808;9.968;2023-05-03T05:38:33;99940.44;;;10.04;58.66
46506;BME280;32220;49.808;9.968;2023-05-03T05:41:02;99952.66;;;10.28;57.95
46506;BME280;32220;49.808;9.968;2023-05-03T05:43:30;99947.56;;;10.44;58.00
46506;BME280;32220;49.808;9.968;2023-05-03T05:45:58;99950.50;;;10.57;57.30
46506;BME280;32220;49.808;9.968;2023-05-03T05:48:26;99943.72;;;10.70;57.47
46506;BME280;32220;49.808;9.968;2023-05-03T05:50:56;99949.03;;;10.89;57.26
46506;BME280;32220;49.808;9.968;2023-05-03T05:53:23;99957.78;;;11.09;56.87
46506;BME280;32220;49.808;9.968;2023-05-03T05:55:58;99944.31;;;11.33;56.11
46506;BME280;32220;49.808;9.968;2023-05-03T05:58:28;99950.28;;;11.55;55.25
46506;BME280;32220;49.808;9.968;2023-05-03T06:00:58;99952.38;;;11.84;55.19
46506;BME280;32220;49.808;9.968;2023-05-03T06:03:27;99964.09;;;11.98;54.35
46506;BME280;32220;49.808;9.968;2023-05-03T06:05:59;99950.81;;;12.15;54.30
46506;BME280;32220;49.808;9.968;2023-05-03T06:08:27;99953.47;;;12.15;52.97
46506;BME280;32220;49.808;9.968;2023-05-03T06:10:55;99951.94;;;12.11;52.32
46506;BME280;32220;49.808;9.968;2023-05-03T06:13:25;99966.13;;;12.27;53.14
46506;BME280;32220;49.808;9.968;2023-05-03T06:15:52;99945.41;;;12.34;53.26
46506;BME280;32220;49.808;9.968;2023-05-03T06:18:20;99970.44;;;12.63;52.25
46506;BME280;32220;49.808;9.968;2023-05-03T06:20:48;99975.09;;;12.75;51.80
46506;BME280;32220;49.808;9.968;2023-05-03T06:23:19;99970.41;;;12.80;51.79
46506;BME280;32220;49.808;9.968;2023-05-03T06:25:47;99971.72;;;13.04;51.85
46506;BME280;32220;49.808;9.968;2023-05-03T06:28:16;99983.44;;;13.17;50.99
46506;BME280;32220;49.808;9.968;2023-05-03T06:30:47;99981.31;;;13.40;50.58
46506;BME280;32220;49.808;9.968;2023-05-03T06:33:16;99986.72;;;13.70;50.42
46506;BME280;32220;49.808;9.968;2023-05-03T06:35:46;99990.69;;;13.92;49.45
46506;BME280;32220;49.808;9.968;2023-05-03T06:38:16;99971.81;;;13.97;49.21
46506;BME280;32220;49.808;9.968;2023-05-03T06:40:45;99989.13;;;14.34;50.01
46506;BME280;32220;49.808;9.968;2023-05-03T06:43:13;99985.47;;;14.65;49.60
46506;BME280;32220;49.808;9.968;2023-05-03T06:45:53;100001.56;;;14.63;48.02
46506;BME280;32220;49.808;9.968;2023-05-03T06:48:20;99999.28;;;14.57;47.38
46506;BME280;32220;49.808;9.968;2023-05-03T06:50:48;99975.09;;;14.46;48.03
46506;BME280;32220;49.808;9.968;2023-05-03T06:53:16;99984.63;;;14.64;48.63
46506;BME280;32220;49.808;9.968;2023-05-03T06:55:45;99988.81;;;14.54;47.43
46506;BME280;32220;49.808;9.968;2023-05-03T06:58:13;99991.66;;;14.51;47.96
46506;BME280;32220;49.808;9.968;2023-05-03T07:00:41;99975.56;;;14.53;48.54
46506;BME280;32220;49.808;9.968;2023-05-03T07:03:09;99972.06;;;14.81;48.69
46506;BME280;32220;49.808;9.968;2023-05-03T07:05:37;99983.69;;;15.08;47.58
46506;BME280;32220;49.808;9.968;2023-05-03T07:08:04;99982.41;;;15.28;47.57
46506;BME280;32220;49.808;9.968;2023-05-03T07:10:32;99983.00;;;15.33;47.15
46506;BME280;32220;49.808;9.968;2023-05-03T07:13:01;99973.13;;;15.33;46.86
46506;BME280;32220;49.808;9.968;2023-05-03T07:15:30;99961.94;;;15.14;46.23
46506;BME280;32220;49.808;9.968;2023-05-03T07:17:57;99940.38;;;15.31;47.83
46506;BME280;32220;49.808;9.968;2023-05-03T07:20:26;99953.25;;;15.66;48.50
46506;BME280;32220;49.808;9.968;2023-05-03T07:22:53;99941.34;;;15.84;47.52
46506;BME280;32220;49.808;9.968;2023-05-03T07:25:22;99949.97;;;16.14;45.74
46506;BME280;32220;49.808;9.968;2023-05-03T07:27:50;99961.88;;;16.61;45.57
46506;BME280;32220;49.808;9.968;2023-05-03T07:30:19;99952.59;;;16.92;45.57
46506;BME280;32220;49.808;9.968;2023-05-03T07:32:47;99969.72;;;16.64;44.20
46506;BME280;32220;49.808;9.968;2023-05-03T07:35:15;99962.09;;;16.58;44.40
46506;BME280;32220;49.808;9.968;2023-05-03T07:37:44;99950.66;;;16.43;43.94
46506;BME280;32220;49.808;9.968;2023-05-03T07:40:12;99961.13;;;16.59;44.88
46506;BME280;32220;49.808;9.968;2023-05-03T07:42:39;99964.75;;;16.58;43.96
46506;BME280;32220;49.808;9.968;2023-05-03T07:45:08;99941.03;;;16.92;46.54
46506;BME280;32220;49.808;9.968;2023-05-03T07:47:37;99945.63;;;17.39;44.09
46506;BME280;32220;49.808;9.968;2023-05-03T07:50:06;99952.66;;;18.00;44.44
46506;BME280;32220;49.808;9.968;2023-05-03T07:52:35;99961.94;;;18.07;43.32
46506;BME280;32220;49.808;9.968;2023-05-03T07:55:04;99948.72;;;18.17;44.19
46506;BME280;32220;49.808;9.968;2023-05-03T07:57:32;99957.31;;;18.44;44.01
46506;BME280;32220;49.808;9.968;2023-05-03T07:59:59;99964.09;;;18.61;41.49
46506;BME280;32220;49.808;9.968;2023-05-03T08:02:27;99946.72;;;18.54;41.51
46506;BME280;32220;49.808;9.968;2023-05-03T08:04:56;99973.25;;;18.92;41.94
46506;BME280;32220;49.808;9.968;2023-05-03T08:07:23;99959.84;;;19.03;40.41
46506;BME280;32220;49.808;9.968;2023-05-03T08:09:51;99979.13;;;19.53;40.07
46506;BME280;32220;49.808;9.968;2023-05-03T08:12:19;99926.47;;;19.82;41.63
46506;BME280;32220;49.808;9.968;2023-05-03T08:14:46;99974.38;;;20.41;41.13
46506;BME280;32220;49.808;9.968;2023-05-03T08:17:14;99981.88;;;20.58;40.04
46506;BME280;32220;49.808;9.968;2023-05-03T08:19:41;99992.38;;;20.40;37.95
46506;BME280;32220;49.808;9.968;2023-05-03T08:22:10;99965.56;;;20.50;41.01
46506;BME280;32220;49.808;9.968;2023-05-03T08:24:38;99984.47;;;20.90;38.44
46506;BME280;32220;49.808;9.968;2023-05-03T08:27:07;99988.72;;;21.54;37.14
46506;BME280;32220;49.808;9.968;2023-05-03T08:29:36;99997.31;;;22.65;36.09
46506;BME280;32220;49.808;9.968;2023-05-03T08:32:04;100006.28;;;23.58;35.00
46506;BME280;32220;49.808;9.968;2023-05-03T08:34:32;100024.72;;;23.90;31.26
46506;BME280;32220;49.808;9.968;2023-05-03T08:37:00;99994.50;;;24.66;32.16
46506;BME280;32220;49.808;9.968;2023-05-03T08:39:31;100020.63;;;25.95;30.42
46506;BME280;32220;49.808;9.968;2023-05-03T08:41:58;100023.25;;;26.77;30.04
46506;BME280;32220;49.808;9.968;2023-05-03T08:44:28;100029.38;;;27.59;28.29
46506;BME280;32220;49.808;9.968;2023-05-03T08:46:57;100028.81;;;28.56;26.79
46506;BME280;32220;49.808;9.968;2023-05-03T08:49:26;100032.16;;;29.19;26.10
46506;BME280;32220;49.808;9.968;2023-05-03T08:51:54;100039.06;;;29.44;24.58
46506;BME280;32220;49.808;9.968;2023-05-03T08:54:23;100045.38;;;29.30;23.49
46506;BME280;32220;49.808;9.968;2023-05-03T08:56:53;100039.41;;;29.12;25.17
46506;BME280;32220;49.808;9.968;2023-05-03T08:59:21;100023.00;;;28.82;25.55
46506;BME280;32220;49.808;9.968;2023-05-03T09:01:49;100028.59;;;28.12;25.31
46506;BME280;32220;49.808;9.968;2023-05-03T09:04:17;100035.03;;;27.49;25.93
46506;BME280;32220;49.808;9.968;2023-05-03T09:06:45;100025.66;;;27.60;25.63
46506;BME280;32220;49.808;9.968;2023-05-03T09:09:12;99996.06;;;27.88;25.62
46506;BME280;32220;49.808;9.968;2023-05-03T09:11:41;100024.81;;;28.21;25.31
46506;BME280;32220;49.808;9.968;2023-05-03T09:14:11;100019.03;;;28.24;26.32
46506;BME280;32220;49.808;9.968;2023-05-03T09:16:41;100028.66;;;28.95;25.32
46506;BME280;32220;49.808;9.968;2023-05-03T09:19:10;100026.16;;;30.18;24.57
46506;BME280;32220;49.808;9.968;2023-05-03T09:21:39;100042.44;;;31.46;22.29
46506;BME280;32220;49.808;9.968;2023-05-03T09:24:12;100028.81;;;32.07;22.03
46506;BME280;32220;49.808;9.968;2023-05-03T09:26:40;100044.38;;;32.67;21.45
46506;BME280;32220;49.808;9.968;2023-05-03T09:29:10;100031.06;;;32.71;22.29
46506;BME280;32220;49.808;9.968;2023-05-03T09:31:57;100016.06;;;32.47;22.23
46506;BME280;32220;49.808;9.968;2023-05-03T09:34:26;100034.03;;;32.89;22.25
46506;BME280;32220;49.808;9.968;2023-05-03T09:36:53;100026.63;;;32.57;22.33
46506;BME280;32220;49.808;9.968;2023-05-03T09:39:21;99993.41;;;32.05;22.61
46506;BME280;32220;49.808;9.968;2023-05-03T09:41:49;100014.59;;;32.58;22.34
46506;BME280;32220;49.808;9.968;2023-05-03T09:44:18;100020.91;;;32.32;21.96
46506;BME280;32220;49.808;9.968;2023-05-03T09:47:02;100007.00;;;32.27;21.97
46506;BME280;32220;49.808;9.968;2023-05-03T09:49:31;100024.72;;;33.16;20.78
46506;BME280;32220;49.808;9.968;2023-05-03T09:52:00;100024.28;;;33.39;20.45
46506;BME280;32220;49.808;9.968;2023-05-03T09:54:28;100032.69;;;33.51;19.53
46506;BME280;32220;49.808;9.968;2023-05-03T09:56:57;99984.00;;;32.67;21.57
46506;BME280;32220;49.808;9.968;2023-05-03T09:59:27;99993.97;;;31.81;23.03
46506;BME280;32220;49.808;9.968;2023-05-03T10:01:56;99996.00;;;31.25;24.24
46506;BME280;32220;49.808;9.968;2023-05-03T10:04:26;100008.94;;;31.44;22.50
46506;BME280;32220;49.808;9.968;2023-05-03T10:06:57;100019.66;;;31.39;21.71
46506;BME280;32220;49.808;9.968;2023-05-03T10:09:30;99999.34;;;30.71;23.93
46506;BME280;32220;49.808;9.968;2023-05-03T10:11:59;99967.22;;;30.09;23.29
46506;BME280;32220;49.808;9.968;2023-05-03T10:14:30;99994.03;;;29.70;23.67
46506;BME280;32220;49.808;9.968;2023-05-03T10:16:59;99990.59;;;29.46;23.56
46506;BME280;32220;49.808;9.968;2023-05-03T10:19:33;99980.84;;;29.88;24.62
46506;BME280;32220;49.808;9.968;2023-05-03T10:22:03;99987.31;;;30.02;23.32
46506;BME280;32220;49.808;9.968;2023-05-03T10:24:32;99964.28;;;29.39;24.13
46506;BME280;32220;49.808;9.968;2023-05-03T10:27:00;99959.81;;;28.93;25.51
46506;BME280;32220;49.808;9.968;2023-05-03T10:29:46;99949.09;;;29.36;25.09
46506;BME280;32220;49.808;9.968;2023-05-03T10:32:28;99977.75;;;30.12;22.83
46506;BME280;32220;49.808;9.968;2023-05-03T10:34:56;99975.78;;;30.49;22.91
46506;BME280;32220;49.808;9.968;2023-05-03T10:37:26;99981.72;;;30.74;22.68
46506;BME280;32220;49.808;9.968;2023-05-03T10:39:54;99966.97;;;30.25;23.32
46506;BME280;32220;49.808;9.968;2023-05-03T10:42:23;99926.59;;;29.85;25.02
46506;BME280;32220;49.808;9.968;2023-05-03T10:44:54;99966.84;;;29.76;23.43
46506;BME280;32220;49.808;9.968;2023-05-03T10:47:23;99958.16;;;29.73;24.53
46506;BME280;32220;49.808;9.968;2023-05-03T10:50:23;99955.72;;;30.14;24.60
46506;BME280;32220;49.808;9.968;2023-05-03T10:52:51;99956.81;;;30.62;23.91
46506;BME280;32220;49.808;9.968;2023-05-03T10:55:20;99961.06;;;31.27;23.51
46506;BME280;32220;49.808;9.968;2023-05-03T10:57:52;99951.63;;;31.36;23.45
46506;BME280;32220;49.808;9.968;2023-05-03T11:00:28;99941.25;;;31.25;23.88
46506;BME280;32220;49.808;9.968;2023-05-03T11:03:08;99911.63;;;31.00;24.87
46506;BME280;32220;49.808;9.968;2023-05-03T11:05:38;99924.81;;;31.25;24.61
46506;BME280;32220;49.808;9.968;2023-05-03T11:08:13;99942.44;;;32.77;22.76
46506;BME280;32220;49.808;9.968;2023-05-03T11:10:43;99959.44;;;34.52;20.77
46506;BME280;32220;49.808;9.968;2023-05-03T11:13:12;99957.59;;;35.87;18.57
46506;BME280;32220;49.808;9.968;2023-05-03T11:15:41;99979.06;;;36.57;17.54
46506;BME280;32220;49.808;9.968;2023-05-03T11:18:09;99970.09;;;36.85;17.69
46506;BME280;32220;49.808;9.968;2023-05-03T11:20:38;99961.00;;;37.19;17.01
46506;BME280;32220;49.808;9.968;2023-05-03T11:23:06;99962.16;;;36.77;17.75
46506;BME280;32220;49.808;9.968;2023-05-03T11:25:34;99949.72;;;35.73;18.89
46506;BME280;32220;49.808;9.968;2023-05-03T11:28:02;99931.13;;;35.68;19.28
46506;BME280;32220;49.808;9.968;2023-05-03T11:30:32;99957.78;;;35.38;17.96
46506;BME280;32220;49.808;9.968;2023-05-03T11:33:02;99926.59;;;34.33;19.88
46506;BME280;32220;49.808;9.968;2023-05-03T11:35:30;99921.88;;;33.70;19.50
46506;BME280;32220;49.808;9.968;2023-05-03T11:37:58;99917.13;;;32.88;21.00
46506;BME280;32220;49.808;9.968;2023-05-03T11:40:25;99918.38;;;32.53;21.38
46506;BME280;32220;49.808;9.968;2023-05-03T11:42:54;99893.91;;;32.71;22.06
46506;BME280;32220;49.808;9.968;2023-05-03T11:45:25;99923.88;;;32.86;19.69
46506;BME280;32220;49.808;9.968;2023-05-03T11:47:55;99899.81;;;32.41;21.55
46506;BME280;32220;49.808;9.968;2023-05-03T11:50:43;99912.91;;;32.46;20.57
46506;BME280;32220;49.808;9.968;2023-05-03T11:53:11;99909.41;;;33.16;20.84
46506;BME280;32220;49.808;9.968;2023-05-03T11:55:40;99914.16;;;33.99;18.25
46506;BME280;32220;49.808;9.968;2023-05-03T11:58:12;99937.69;;;35.12;17.06
46506;BME280;32220;49.808;9.968;2023-05-03T12:00:42;99915.53;;;36.22;18.90
46506;BME280;32220;49.808;9.968;2023-05-03T12:03:10;99931.25;;;37.38;16.39
46506;BME280;32220;49.808;9.968;2023-05-03T12:05:44;99916.88;;;38.38;16.94
46506;BME280;32220;49.808;9.968;2023-05-03T12:08:12;99909.19;;;39.12;17.08
46506;BME280;32220;49.808;9.968;2023-05-03T12:10:41;99924.69;;;40.27;15.19
46506;BME280;32220;49.808;9.968;2023-05-03T12:13:08;99938.59;;;40.64;13.78
46506;BME280;32220;49.808;9.968;2023-05-03T12:15:38;99917.94;;;41.34;15.00
46506;BME280;32220;49.808;9.968;2023-05-03T12:18:07;99910.41;;;42.12;14.64
46506;BME280;32220;49.808;9.968;2023-05-03T12:20:36;99920.44;;;42.69;13.29
46506;BME280;32220;49.808;9.968;2023-05-03T12:23:07;99919.03;;;42.87;12.85
46506;BME280;32220;49.808;9.968;2023-05-03T12:25:35;99916.53;;;42.70;12.91
46506;BME280;32220;49.808;9.968;2023-05-03T12:28:04;99923.22;;;42.79;11.87
46506;BME280;32220;49.808;9.968;2023-05-03T12:30:33;99921.53;;;42.78;12.90
46506;BME280;32220;49.808;9.968;2023-05-03T12:33:01;99912.03;;;42.94;13.19
46506;BME280;32220;49.808;9.968;2023-05-03T12:35:28;99915.91;;;43.04;12.57
46506;BME280;32220;49.808;9.968;2023-05-03T12:37:56;99906.50;;;42.79;13.51
46506;BME280;32220;49.808;9.968;2023-05-03T12:40:26;99902.81;;;43.09;13.07
46506;BME280;32220;49.808;9.968;2023-05-03T12:42:53;99892.19;;;43.21;13.44
46506;BME280;32220;49.808;9.968;2023-05-03T12:45:21;99880.03;;;42.61;11.95
46506;BME280;32220;49.808;9.968;2023-05-03T12:47:52;99899.25;;;42.33;12.20
46506;BME280;32220;49.808;9.968;2023-05-03T12:50:20;99889.53;;;42.00;12.28
46506;BME280;32220;49.808;9.968;2023-05-03T12:52:48;99880.34;;;42.24;12.79
46506;BME280;32220;49.808;9.968;2023-05-03T12:55:18;99885.91;;;42.50;12.48
46506;BME280;32220;49.808;9.968;2023-05-03T12:57:48;99884.78;;;42.30;12.49
46506;BME280;32220;49.808;9.968;2023-05-03T13:00:16;99867.53;;;42.28;13.03
46506;BME280;32220;49.808;9.968;2023-05-03T13:02:46;99874.47;;;42.61;12.95
46506;BME280;32220;49.808;9.968;2023-05-03T13:05:14;99883.13;;;42.50;11.98
46506;BME280;32220;49.808;9.968;2023-05-03T13:07:42;99872.81;;;42.10;12.68
46506;BME280;32220;49.808;9.968;2023-05-03T13:10:09;99860.84;;;42.24;12.76
46506;BME280;32220;49.808;9.968;2023-05-03T13:12:37;99858.09;;;42.40;11.80
46506;BME280;32220;49.808;9.968;2023-05-03T13:15:10;99870.81;;;42.66;12.08